Time;durP1;ratioP1;P1;durP2;ratioP2;P2;SDS_P1;SDS_P2;PMS_P1;PMS_P2;Temp;Humidity;BMP_temperature;BMP_pressure;BME280_temperature;BME280_humidity;BME280_pressure;Samples;Min_cycle;Max_cycle;Signal;HPM_P1;HPM_P2
2022/02/03 00:00:44;;;;;;;;;;;;;;;0.90;100.00;98233.07;1648596;85;24546;-88
2022/02/03 00:03:22;;;;;;;;;;;;;;;0.89;100.00;98232.67;1653244;85;20226;-89
2022/02/03 00:05:53;;;;;;;;;;;;;;;0.87;100.00;98230.17;1625826;86;24782;-88
2022/02/03 00:08:37;;;;;;;;;;;;;;;0.86;100.00;98236.21;1646423;84;21991;-88
2022/02/03 00:16:43;;;;;;;;;;;;;;;0.87;100.00;98243.49;1636982;87;20211;-85
2022/02/03 00:22:05;;;;;;;;;;;;;;;0.87;100.00;98261.08;1645200;86;22042;-85
2022/02/03 00:24:31;;;;;;;;;;;;;;;0.86;100.00;98262.41;1638613;86;26074;-89
2022/02/03 00:27:09;;;;;;;;;;;;;;;0.83;100.00;98267.20;1634733;87;24542;-89
2022/02/03 00:29:53;;;;;;;;;;;;;;;0.85;100.00;98274.45;1652219;86;20297;-89
2022/02/03 00:51:15;;;;;;;;;;;;;;;0.88;100.00;98331.44;1617455;86;26036;-89
2022/02/03 00:53:42;;;;;;;;;;;;;;;0.95;100.00;98331.65;1610044;87;25310;-89
2022/02/03 00:56:09;;;;;;;;;;;;;;;0.98;100.00;98333.70;1604711;88;20477;-88
2022/02/03 00:58:37;;;;;;;;;;;;;;;0.98;100.00;98339.30;1607633;87;24852;-85
2022/02/03 01:01:03;;;;;;;;;;;;;;;1.01;100.00;98337.89;1575925;88;21995;-85
2022/02/03 01:03:30;;;;;;;;;;;;;;;0.99;100.00;98348.23;1612263;86;25939;-84
2022/02/03 01:06:02;;;;;;;;;;;;;;;0.98;100.00;98350.44;1614141;87;24512;-84
2022/02/03 01:08:50;;;;;;;;;;;;;;;0.97;100.00;98360.34;1619959;86;20607;-88
2022/02/03 01:11:23;;;;;;;;;;;;;;;0.97;100.00;98364.21;1642224;87;24962;-89
2022/02/03 01:14:01;;;;;;;;;;;;;;;0.99;100.00;98359.83;1644191;86;21996;-89
2022/02/03 01:43:59;;;;;;;;;;;;;;;0.80;100.00;98374.21;1637116;86;26058;-89
2022/02/03 01:46:38;;;;;;;;;;;;;;;0.79;100.00;98380.25;1634775;84;24626;-89
2022/02/03 01:49:09;;;;;;;;;;;;;;;0.79;100.00;98375.09;1628056;86;20283;-89
2022/02/03 01:51:49;;;;;;;;;;;;;;;0.79;100.00;98384.11;1570343;89;25442;-89
2022/02/03 01:54:06;;;;;;;;;;;;;;;0.79;100.00;98389.27;1592377;89;22270;-88
2022/02/03 01:56:44;;;;;;;;;;;;;;;0.77;100.00;98387.17;1604907;87;26470;-85
2022/02/03 01:59:21;;;;;;;;;;;;;;;0.72;100.00;98388.61;1595064;89;24503;-84
2022/02/03 02:01:49;;;;;;;;;;;;;;;0.72;100.00;98387.76;1574210;90;20492;-84
2022/02/03 02:04:23;;;;;;;;;;;;;;;0.71;100.00;98392.54;1628977;86;25435;-89
2022/02/03 02:07:07;;;;;;;;;;;;;;;0.68;100.00;98399.05;1630990;86;21936;-88
2022/02/03 02:09:48;;;;;;;;;;;;;;;0.69;100.00;98408.47;1645271;86;26140;-88
2022/02/03 02:12:23;;;;;;;;;;;;;;;0.69;100.00;98404.61;1649739;86;24465;-89
2022/02/03 02:42:41;;;;;;;;;;;;;;;0.59;100.00;98443.12;1606851;88;20310;-89
2022/02/03 02:45:12;;;;;;;;;;;;;;;0.64;100.00;98447.69;1609459;88;24757;-89
2022/02/03 02:47:42;;;;;;;;;;;;;;;0.64;100.00;98451.11;1608706;88;22165;-88
2022/02/03 02:50:32;;;;;;;;;;;;;;;0.59;100.00;98445.69;1590167;89;26051;-87
2022/02/03 02:52:54;;;;;;;;;;;;;;;0.57;100.00;98457.31;1601686;89;24461;-88
2022/02/03 02:55:50;;;;;;;;;;;;;;;0.57;100.00;98466.77;1596493;89;20237;-87
2022/02/03 03:03:45;;;;;;;;;;;;;;;0.46;100.00;98480.39;1596770;88;26023;-87
2022/02/03 03:33:36;;;;;;;;;;;;;;;0.29;100.00;98506.17;1604026;86;24569;-88
2022/02/03 03:36:00;;;;;;;;;;;;;;;0.29;100.00;98513.89;1628021;86;20217;-89
2022/02/03 03:38:26;;;;;;;;;;;;;;;0.30;100.00;98510.88;1606414;89;25426;-89
2022/02/03 03:40:54;;;;;;;;;;;;;;;0.30;100.00;98513.45;1586105;88;22013;-88
2022/02/03 03:43:33;;;;;;;;;;;;;;;0.28;100.00;98509.63;1586458;88;26657;-87
2022/02/03 03:46:02;;;;;;;;;;;;;;;0.30;100.00;98516.87;1589116;89;25384;-87
2022/02/03 03:48:33;;;;;;;;;;;;;;;0.32;100.00;98516.39;1599509;88;20278;-88
2022/02/03 03:51:01;;;;;;;;;;;;;;;0.35;100.00;98510.30;1635796;86;24775;-84
2022/02/03 03:53:39;;;;;;;;;;;;;;;0.40;100.00;98506.71;1638514;86;22255;-88
2022/02/03 03:56:22;;;;;;;;;;;;;;;0.45;100.00;98512.16;1628825;87;26026;-88
2022/02/03 03:59:23;;;;;;;;;;;;;;;0.47;100.00;98512.54;1638261;86;24747;-87
2022/02/03 04:39:22;;;;;;;;;;;;;;;1.30;100.00;98531.54;1591112;89;26141;-87
2022/02/03 04:41:23;;;;;;;;;;;;;;;1.31;100.00;98535.34;1582068;89;24178;-87
2022/02/03 05:05:52;;;;;;;;;;;;;;;1.00;100.00;98554.77;1629153;86;26132;-88
2022/02/03 05:11:29;;;;;;;;;;;;;;;1.10;100.00;98562.61;1623310;87;20454;-88
2022/02/03 05:14:36;;;;;;;;;;;;;;;1.27;100.00;98553.09;1620461;88;24862;-84
2022/02/03 05:17:07;;;;;;;;;;;;;;;1.28;100.00;98552.20;1622434;88;21989;-84
2022/02/03 05:20:00;;;;;;;;;;;;;;;1.28;100.00;98565.09;1618267;87;26018;-88
2022/02/03 06:12:49;;;;;;;;;;;;;;;1.46;100.00;98588.19;1630221;87;22955;-88
2022/02/03 06:15:01;;;;;;;;;;;;;;;1.51;100.00;98582.44;1642894;84;26707;-87
2022/02/03 06:17:50;;;;;;;;;;;;;;;1.55;100.00;98584.86;1635523;85;24422;-91
2022/02/03 06:23:04;;;;;;;;;;;;;;;1.61;100.00;98591.13;1633706;86;24842;-84
2022/02/03 06:27:59;;;;;;;;;;;;;;;1.58;100.00;98585.23;1591738;89;26702;-88
2022/02/03 06:30:25;;;;;;;;;;;;;;;1.65;100.00;98604.75;1589498;89;24616;-83
2022/02/03 06:32:51;;;;;;;;;;;;;;;1.62;100.00;98616.47;1593176;88;20223;-84
2022/02/03 06:35:17;;;;;;;;;;;;;;;1.53;100.00;98619.31;1591014;89;24749;-83
2022/02/03 06:37:45;;;;;;;;;;;;;;;1.44;100.00;98622.19;1635425;86;21960;-84
2022/02/03 06:40:12;;;;;;;;;;;;;;;1.41;100.00;98623.58;1636737;86;26090;-84
2022/02/03 06:42:45;;;;;;;;;;;;;;;1.39;100.00;98621.48;1629297;86;24543;-91
2022/02/03 06:45:40;;;;;;;;;;;;;;;1.42;100.00;98627.38;1626313;86;20250;-90
2022/02/03 06:48:07;;;;;;;;;;;;;;;1.44;100.00;98626.90;1633587;86;24731;-90
2022/02/03 06:50:38;;;;;;;;;;;;;;;1.54;100.00;98632.17;1603439;88;22028;-91
2022/02/03 06:53:12;;;;;;;;;;;;;;;1.60;100.00;98638.44;1591770;89;26584;-90
2022/02/03 06:55:49;;;;;;;;;;;;;;;1.57;100.00;98646.72;1610452;88;24538;-84
2022/02/03 06:58:29;;;;;;;;;;;;;;;1.51;100.00;98645.61;1610561;88;20229;-84
2022/02/03 07:03:39;;;;;;;;;;;;;;;1.48;100.00;98645.25;1641530;86;22034;-86
2022/02/03 07:06:02;;;;;;;;;;;;;;;1.50;100.00;98643.92;1626997;86;26025;-87
2022/02/03 07:08:31;;;;;;;;;;;;;;;1.53;100.00;98650.27;1624866;86;24490;-87
2022/02/03 07:11:12;;;;;;;;;;;;;;;1.55;100.00;98647.20;1544731;90;20229;-90
2022/02/03 07:13:42;;;;;;;;;;;;;;;1.51;100.00;98653.34;1578573;89;24944;-89
2022/02/03 07:16:09;;;;;;;;;;;;;;;1.48;100.00;98654.27;1577565;89;22183;-90
2022/02/03 07:18:48;;;;;;;;;;;;;;;1.53;100.00;98651.11;1575942;89;25866;-89
2022/02/03 07:21:14;;;;;;;;;;;;;;;1.57;100.00;98638.98;1572496;89;24505;-87
2022/02/03 07:23:40;;;;;;;;;;;;;;;1.61;100.00;98659.47;1598512;88;20361;-87
2022/02/03 07:26:06;;;;;;;;;;;;;;;1.62;100.00;98663.75;1596322;89;20294;-87
2022/02/03 07:28:34;;;;;;;;;;;;;;;1.62;100.00;98662.90;1588855;89;21984;-87
2022/02/03 07:31:01;;;;;;;;;;;;;;;1.64;100.00;98676.13;1594329;89;26641;-87
2022/02/03 07:33:27;;;;;;;;;;;;;;;1.67;100.00;98677.79;1584048;89;24529;-87
2022/02/03 07:35:53;;;;;;;;;;;;;;;1.66;100.00;98663.20;1580864;89;20262;-87
2022/02/03 07:38:20;;;;;;;;;;;;;;;1.65;100.00;98672.67;1586212;88;24525;-87
2022/02/03 07:40:49;;;;;;;;;;;;;;;1.65;100.00;98663.64;1589506;89;21485;-90
2022/02/03 07:43:20;;;;;;;;;;;;;;;1.68;100.00;98657.56;1584204;89;26406;-90
2022/02/03 07:45:46;;;;;;;;;;;;;;;1.73;100.00;98654.39;1583859;89;25396;-90
2022/02/03 07:48:21;;;;;;;;;;;;;;;1.78;100.00;98656.82;1587387;89;20280;-90
2022/02/03 07:50:47;;;;;;;;;;;;;;;1.83;100.00;98652.36;1581556;89;24778;-90
2022/02/03 07:53:14;;;;;;;;;;;;;;;1.84;100.00;98654.91;1582673;89;20310;-90
2022/02/03 07:55:47;;;;;;;;;;;;;;;1.89;100.00;98649.59;1582593;89;26326;-89
2022/02/03 07:58:13;;;;;;;;;;;;;;;1.92;100.00;98659.80;1587491;89;24731;-87
2022/02/03 08:00:39;;;;;;;;;;;;;;;1.94;100.00;98642.10;1576118;89;20211;-87
2022/02/03 08:03:10;;;;;;;;;;;;;;;1.99;100.00;98653.12;1627108;87;24754;-87
2022/02/03 08:05:41;;;;;;;;;;;;;;;2.04;100.00;98646.52;1624966;87;22109;-87
2022/02/03 08:08:24;;;;;;;;;;;;;;;2.10;100.00;98648.90;1628038;87;26014;-87
2022/02/03 08:10:50;;;;;;;;;;;;;;;2.18;100.00;98640.91;1627101;87;24475;-87
2022/02/03 08:13:24;;;;;;;;;;;;;;;2.21;100.00;98646.81;1645070;86;20599;-87
2022/02/03 08:15:59;;;;;;;;;;;;;;;2.19;100.00;98640.00;1633048;86;25591;-87
2022/02/03 08:18:30;;;;;;;;;;;;;;;2.19;100.00;98634.83;1638207;86;22314;-89
2022/02/03 08:21:07;;;;;;;;;;;;;;;2.18;100.00;98634.02;1622180;86;26142;-90
2022/02/03 08:26:13;;;;;;;;;;;;;;;2.23;100.00;98637.73;1640373;86;20246;-87
2022/02/03 08:31:19;;;;;;;;;;;;;;;2.22;100.00;98641.20;1644797;86;22031;-90
2022/02/03 08:33:32;;;;;;;;;;;;;;;2.19;100.00;98640.84;1623601;86;26080;-90
2022/02/03 08:36:02;;;;;;;;;;;;;;;2.29;100.00;98649.16;1634107;86;24619;-87
2022/02/03 08:41:12;;;;;;;;;;;;;;;2.36;100.00;98635.97;1606267;88;24799;-92
2022/02/03 08:46:30;;;;;;;;;;;;;;;2.25;100.00;98632.90;1604528;88;25983;-83
2022/02/03 08:49:03;;;;;;;;;;;;;;;2.22;100.00;98625.71;1589267;88;24499;-90
2022/02/03 08:51:28;;;;;;;;;;;;;;;2.23;100.00;98625.67;1597234;88;20217;-84
2022/02/03 08:53:56;;;;;;;;;;;;;;;2.23;100.00;98624.38;1598254;89;24747;-84
2022/02/03 08:56:48;;;;;;;;;;;;;;;2.24;100.00;98623.91;1596661;88;22832;-90
2022/02/03 09:33:50;;;;;;;;;;;;;;;2.45;100.00;98619.33;1598879;89;20244;-87
2022/02/03 09:37:30;;;;;;;;;;;;;;;2.64;100.00;98622.11;1604707;88;22695;-88
2022/02/03 09:53:36;;;;;;;;;;;;;;;3.19;100.00;98620.52;1589728;88;25969;-87
2022/02/03 09:58:37;;;;;;;;;;;;;;;3.16;100.00;98609.00;1583820;89;20485;-84
2022/02/03 10:01:10;;;;;;;;;;;;;;;3.22;100.00;98610.48;1590035;88;25679;-89
2022/02/03 10:06:36;;;;;;;;;;;;;;;3.13;100.00;98599.20;1583994;88;26709;-90
2022/02/03 10:09:07;;;;;;;;;;;;;;;3.09;100.00;98598.94;1585840;89;25212;-88
2022/02/03 10:11:38;;;;;;;;;;;;;;;3.04;100.00;98593.94;1601666;88;20510;-88
2022/02/03 10:14:04;;;;;;;;;;;;;;;3.05;100.00;98580.56;1591977;89;24794;-84
2022/02/03 10:16:34;;;;;;;;;;;;;;;3.06;100.00;98586.11;1593538;89;22050;-89
2022/02/03 10:19:16;;;;;;;;;;;;;;;3.00;100.00;98588.47;1591210;89;26098;-89
2022/02/03 10:21:43;;;;;;;;;;;;;;;2.99;100.00;98579.50;1587212;89;24513;-88
2022/02/03 10:24:15;;;;;;;;;;;;;;;2.97;100.00;98588.59;1597499;88;20248;-88
2022/02/03 10:26:40;;;;;;;;;;;;;;;2.95;100.00;98587.35;1582029;89;24440;-84
2022/02/03 10:29:08;;;;;;;;;;;;;;;3.00;100.00;98589.76;1587167;89;22133;-89
2022/02/03 10:31:36;;;;;;;;;;;;;;;3.02;100.00;98595.73;1586669;88;26111;-84
2022/02/03 10:34:10;;;;;;;;;;;;;;;3.06;100.00;98589.98;1590137;88;24508;-86
2022/02/03 10:36:41;;;;;;;;;;;;;;;3.13;100.00;98596.63;1592904;89;20226;-88
2022/02/03 10:39:22;;;;;;;;;;;;;;;3.21;100.00;98592.02;1595599;89;25633;-89
2022/02/03 10:41:57;;;;;;;;;;;;;;;3.30;100.00;98587.78;1588568;89;21985;-88
2022/02/03 10:44:20;;;;;;;;;;;;;;;3.39;100.00;98586.13;1590803;89;26698;-84
2022/02/03 10:46:59;;;;;;;;;;;;;;;3.49;100.00;98584.86;1591363;88;24483;-88
2022/02/03 11:02:37;;;;;;;;;;;;;;;3.47;100.00;98584.55;1620035;86;20483;-89
2022/02/03 11:07:43;;;;;;;;;;;;;;;3.55;100.00;98569.55;1632994;86;22030;-89
2022/02/03 11:10:23;;;;;;;;;;;;;;;3.62;100.00;98568.41;1637070;85;26016;-88
2022/02/03 11:12:35;;;;;;;;;;;;;;;3.76;100.00;98563.06;1636831;86;24447;-88
2022/02/03 11:15:05;;;;;;;;;;;;;;;3.88;100.00;98563.47;1639072;86;20260;-89
2022/02/03 11:17:31;;;;;;;;;;;;;;;3.98;100.00;98571.28;1598625;89;24807;-89
2022/02/03 11:19:59;;;;;;;;;;;;;;;4.01;100.00;98564.66;1598900;89;21983;-89
2022/02/03 11:22:43;;;;;;;;;;;;;;;3.98;100.00;98562.22;1586307;89;26810;-89
2022/02/03 11:25:12;;;;;;;;;;;;;;;3.96;100.00;98561.43;1587076;89;24505;-89
2022/02/03 11:27:34;;;;;;;;;;;;;;;3.96;100.00;98558.84;1595323;88;20252;-89
2022/02/03 11:30:19;;;;;;;;;;;;;;;3.95;100.00;98555.41;1609120;88;24903;-89
2022/02/03 11:36:05;;;;;;;;;;;;;;;3.89;100.00;98550.47;1602801;88;26301;-88
2022/02/03 11:38:07;;;;;;;;;;;;;;;3.87;100.00;98543.70;1576767;89;25328;-89
2022/02/03 11:43:22;;;;;;;;;;;;;;;3.84;100.00;98537.33;1590472;89;25603;-89
2022/02/03 11:45:56;;;;;;;;;;;;;;;3.81;100.00;98533.59;1606285;88;22096;-89
2022/02/03 11:51:04;;;;;;;;;;;;;;;3.81;100.00;98533.14;1606184;88;24519;-86
2022/02/03 11:59:23;;;;;;;;;;;;;;;4.02;100.00;98537.42;1607102;88;22545;-86
2022/02/03 12:01:48;;;;;;;;;;;;;;;4.05;100.00;98533.84;1571711;90;26279;-86
2022/02/03 12:07:27;;;;;;;;;;;;;;;4.12;100.00;98523.63;1606997;89;20255;-85
2022/02/03 12:20:58;;;;;;;;;;;;;;;4.32;100.00;98525.35;1612525;87;20553;-86
2022/02/03 12:26:05;;;;;;;;;;;;;;;4.37;100.00;98530.72;1603406;87;22002;-89
2022/02/03 12:28:34;;;;;;;;;;;;;;;4.42;100.00;98522.30;1607896;87;26884;-89
2022/02/03 12:39:04;;;;;;;;;;;;;;;4.68;100.00;98495.70;1604805;88;22053;-86
2022/02/03 12:41:35;;;;;;;;;;;;;;;4.68;100.00;98495.25;1609238;88;26135;-86
2022/02/03 12:44:02;;;;;;;;;;;;;;;4.72;100.00;98493.34;1610915;88;25145;-86
2022/02/03 12:46:27;;;;;;;;;;;;;;;4.77;100.00;98488.34;1606674;88;20288;-86
2022/02/03 12:48:56;;;;;;;;;;;;;;;4.78;100.00;98486.14;1609469;88;24825;-86
2022/02/03 12:51:27;;;;;;;;;;;;;;;4.82;100.00;98476.45;1603534;88;22943;-89
2022/02/03 12:53:54;;;;;;;;;;;;;;;4.88;100.00;98474.88;1607835;88;26104;-86
2022/02/03 12:56:22;;;;;;;;;;;;;;;4.95;100.00;98471.10;1608982;88;24577;-89
2022/02/03 12:58:58;;;;;;;;;;;;;;;4.99;100.00;98470.03;1606741;88;20241;-90
2022/02/03 13:01:29;;;;;;;;;;;;;;;4.94;100.00;98473.30;1607260;88;24789;-89
2022/02/03 13:03:51;;;;;;;;;;;;;;;4.89;100.00;98467.49;1606228;88;21951;-90
2022/02/03 13:06:19;;;;;;;;;;;;;;;4.86;100.00;98472.35;1587141;90;26910;-86
2022/02/03 13:08:51;;;;;;;;;;;;;;;4.89;100.00;98470.93;1614402;88;25169;-89
2022/02/03 13:11:22;;;;;;;;;;;;;;;4.93;100.00;98469.02;1604738;88;20361;-89
2022/02/03 13:16:20;;;;;;;;;;;;;;;4.93;100.00;98457.35;1584252;89;22028;-86
2022/02/03 13:19:01;;;;;;;;;;;;;;;4.96;100.00;98464.52;1630057;87;26279;-86
2022/02/03 13:22:10;;;;;;;;;;;;;;;4.97;100.00;98453.70;1602284;89;24476;-86
2022/02/03 13:26:39;;;;;;;;;;;;;;;5.03;100.00;98454.70;1567418;89;25456;-86
2022/02/03 13:29:09;;;;;;;;;;;;;;;5.08;100.00;98450.14;1595986;89;21998;-86
2022/02/03 13:31:45;;;;;;;;;;;;;;;5.15;100.00;98452.84;1599881;87;26128;-86
2022/02/03 13:36:34;;;;;;;;;;;;;;;5.26;100.00;98453.16;1602210;89;20319;-86
2022/02/03 13:39:14;;;;;;;;;;;;;;;5.29;100.00;98465.16;1595035;89;24843;-86
2022/02/03 13:41:38;;;;;;;;;;;;;;;5.26;100.00;98457.06;1571427;90;22797;-86
2022/02/03 13:44:06;;;;;;;;;;;;;;;5.28;100.00;98454.40;1595743;89;25990;-89
2022/02/03 13:46:36;;;;;;;;;;;;;;;5.30;100.00;98446.06;1596781;89;24623;-88
2022/02/03 13:49:03;;;;;;;;;;;;;;;5.32;100.00;98448.14;1576157;90;20337;-88
2022/02/03 13:51:31;;;;;;;;;;;;;;;5.30;100.00;98439.13;1603323;89;25802;-89
2022/02/03 14:16:21;;;;;;;;;;;;;;;5.50;100.00;98422.59;1663946;85;20297;-89
2022/02/03 14:21:38;;;;;;;;;;;;;;;5.54;100.00;98421.52;1642674;85;22732;-89
2022/02/03 14:26:55;;;;;;;;;;;;;;;5.55;100.00;98422.36;1642371;85;24322;-89
2022/02/03 14:29:22;;;;;;;;;;;;;;;5.52;100.00;98419.90;1667881;85;20286;-88
2022/02/03 14:32:03;;;;;;;;;;;;;;;5.50;100.00;98413.51;1662460;85;25556;-88
2022/02/03 14:34:34;;;;;;;;;;;;;;;5.46;100.00;98414.10;1659468;85;22191;-89
2022/02/03 14:37:23;;;;;;;;;;;;;;;5.45;100.00;98405.92;1663850;86;26166;-89
2022/02/03 14:42:22;;;;;;;;;;;;;;;5.40;100.00;98400.13;1662146;85;20280;-88
2022/02/03 14:44:51;;;;;;;;;;;;;;;5.40;100.00;98394.94;1651697;86;24803;-88
2022/02/03 14:47:18;;;;;;;;;;;;;;;5.37;100.00;98386.02;1666067;86;22086;-88
2022/02/03 14:49:45;;;;;;;;;;;;;;;5.33;100.00;98385.80;1661434;84;26000;-85
2022/02/03 14:52:14;;;;;;;;;;;;;;;5.27;100.00;98378.77;1658285;86;24414;-85
2022/02/03 15:00:10;;;;;;;;;;;;;;;5.13;100.00;98372.95;1689677;84;22062;-88
2022/02/03 15:02:37;;;;;;;;;;;;;;;5.07;100.00;98373.73;1650388;85;25987;-88
2022/02/03 15:05:08;;;;;;;;;;;;;;;5.02;100.00;98368.73;1696804;83;24399;-88
2022/02/03 15:07:39;;;;;;;;;;;;;;;4.97;100.00;98378.04;1692790;84;20231;-89
2022/02/03 15:12:54;;;;;;;;;;;;;;;4.83;100.00;98373.98;1689505;84;21982;-89
2022/02/03 15:15:09;;;;;;;;;;;;;;;4.73;100.00;98370.61;1701141;82;26313;-89
2022/02/03 15:17:39;;;;;;;;;;;;;;;4.60;100.00;98369.04;1689974;84;20644;-89
2022/02/03 15:20:11;;;;;;;;;;;;;;;4.49;100.00;98375.17;1678873;84;20235;-89
2022/02/03 15:22:46;;;;;;;;;;;;;;;4.43;100.00;98370.27;1685004;84;24958;-89
2022/02/03 15:25:14;;;;;;;;;;;;;;;4.39;100.00;98366.16;1687771;83;22833;-88
2022/02/03 15:27:40;;;;;;;;;;;;;;;4.35;100.00;98362.87;1689655;84;26000;-89
2022/02/03 15:30:14;;;;;;;;;;;;;;;4.30;100.00;98365.29;1683028;84;24433;-89
2022/02/03 15:32:44;;;;;;;;;;;;;;;4.23;99.98;98368.61;1689691;84;20527;-89
2022/02/03 15:35:25;;;;;;;;;;;;;;;4.20;100.00;98359.21;1684080;84;24718;-89
2022/02/03 15:37:48;;;;;;;;;;;;;;;4.18;100.00;98360.20;1679399;84;22070;-90
2022/02/03 15:40:19;;;;;;;;;;;;;;;4.11;100.00;98354.91;1688849;84;25991;-89
2022/02/03 15:43:05;;;;;;;;;;;;;;;4.07;100.00;98361.98;1688000;82;25179;-89
2022/02/03 15:45:40;;;;;;;;;;;;;;;4.00;100.00;98362.32;1692611;84;20171;-89
2022/02/03 15:48:08;;;;;;;;;;;;;;;3.96;100.00;98361.63;1685677;84;24878;-88
2022/02/03 15:51:22;;;;;;;;;;;;;;;3.89;100.00;98358.91;1691590;82;22173;-88
2022/02/03 16:01:19;;;;;;;;;;;;;;;3.64;99.90;98350.10;1695776;84;24788;-88
2022/02/03 16:17:02;;;;;;;;;;;;;;;3.36;99.99;98341.39;1689375;84;22026;-84
2022/02/03 16:19:35;;;;;;;;;;;;;;;3.34;100.00;98341.05;1693963;84;26736;-84
2022/02/03 16:22:03;;;;;;;;;;;;;;;3.28;100.00;98338.72;1693208;83;24462;-84
2022/02/03 16:24:38;;;;;;;;;;;;;;;3.24;100.00;98337.17;1701500;84;20203;-88
2022/02/03 16:43:48;;;;;;;;;;;;;;;2.69;99.88;98321.34;1696035;83;21958;-87
2022/02/03 16:50:24;;;;;;;;;;;;;;;2.69;100.00;98321.34;1692191;84;24481;-87
2022/02/03 16:53:50;;;;;;;;;;;;;;;2.68;100.00;98327.41;1698078;84;24780;-87
2022/02/03 16:56:17;;;;;;;;;;;;;;;2.70;100.00;98326.91;1696336;84;22312;-84
2022/02/03 16:58:45;;;;;;;;;;;;;;;2.73;100.00;98320.75;1692575;83;26015;-87
2022/02/03 17:01:11;;;;;;;;;;;;;;;2.72;100.00;98319.10;1696408;84;24486;-87
2022/02/03 17:03:37;;;;;;;;;;;;;;;2.73;100.00;98322.89;1691315;84;20247;-87
2022/02/03 17:06:05;;;;;;;;;;;;;;;2.75;100.00;98317.22;1696505;84;24744;-87
2022/02/03 17:08:35;;;;;;;;;;;;;;;2.74;100.00;98325.03;1696122;83;22635;-87
2022/02/03 17:11:01;;;;;;;;;;;;;;;2.75;100.00;98319.80;1693616;83;26051;-89
2022/02/03 17:13:28;;;;;;;;;;;;;;;2.77;100.00;98317.17;1692343;83;25178;-90
2022/02/03 17:15:55;;;;;;;;;;;;;;;2.81;100.00;98314.84;1698697;83;20247;-84
2022/02/03 17:18:33;;;;;;;;;;;;;;;2.81;100.00;98306.64;1692152;83;24743;-89
2022/02/03 17:20:59;;;;;;;;;;;;;;;2.81;100.00;98300.63;1698562;83;22104;-87
2022/02/03 17:23:27;;;;;;;;;;;;;;;2.80;100.00;98302.82;1694392;83;26129;-88
2022/02/03 17:26:07;;;;;;;;;;;;;;;2.85;100.00;98297.01;1690831;84;25296;-88
2022/02/03 17:28:36;;;;;;;;;;;;;;;2.83;100.00;98289.34;1699922;83;20301;-88
2022/02/03 17:31:03;;;;;;;;;;;;;;;2.79;100.00;98287.77;1695873;83;24762;-87
2022/02/03 18:11:33;;;;;;;;;;;;;;;2.76;100.00;98259.93;1685302;83;24722;-85
2022/02/03 18:19:52;;;;;;;;;;;;;;;2.62;100.00;98238.52;1725041;82;24913;-89
2022/02/03 18:30:16;;;;;;;;;;;;;;;2.62;100.00;98224.31;1672637;84;25707;-85
2022/02/03 18:32:56;;;;;;;;;;;;;;;2.63;100.00;98218.70;1687737;83;24401;-88
2022/02/03 18:53:38;;;;;;;;;;;;;;;2.77;100.00;98201.74;1698073;84;22111;-90
2022/02/03 18:56:17;;;;;;;;;;;;;;;2.73;100.00;98196.29;1698425;83;26158;-89
2022/02/03 18:58:42;;;;;;;;;;;;;;;2.73;100.00;98193.70;1696794;84;24486;-88
2022/02/03 19:09:45;;;;;;;;;;;;;;;2.85;100.00;98191.90;1702303;84;26022;-89
2022/02/03 19:14:58;;;;;;;;;;;;;;;2.88;100.00;98181.45;1700022;84;20152;-89
2022/02/03 19:26:05;;;;;;;;;;;;;;;2.87;100.00;98168.14;1696340;83;25238;-89
2022/02/03 20:01:41;;;;;;;;;;;;;;;2.97;100.00;98127.66;1699699;83;22045;-89
2022/02/03 20:06:30;;;;;;;;;;;;;;;2.95;100.00;98119.52;1704767;83;24416;-86
2022/02/03 20:11:15;;;;;;;;;;;;;;;2.96;100.00;98111.31;1698154;84;24760;-86
2022/02/03 20:13:40;;;;;;;;;;;;;;;3.02;100.00;98111.50;1699933;84;22175;-86
2022/02/03 20:16:07;;;;;;;;;;;;;;;3.03;100.00;98107.56;1701141;84;25934;-86
2022/02/03 20:18:34;;;;;;;;;;;;;;;3.05;100.00;98116.09;1702540;83;24435;-85
2022/02/03 20:21:00;;;;;;;;;;;;;;;3.07;100.00;98105.21;1704589;84;20210;-86
2022/02/03 20:23:26;;;;;;;;;;;;;;;3.07;100.00;98108.25;1696816;83;24645;-85
2022/02/03 20:25:59;;;;;;;;;;;;;;;3.06;100.00;98106.11;1697576;84;21955;-86
2022/02/03 20:28:23;;;;;;;;;;;;;;;3.06;100.00;98107.86;1697655;82;26718;-86
2022/02/03 20:30:49;;;;;;;;;;;;;;;3.08;100.00;98108.64;1701631;83;24407;-86
2022/02/03 20:33:18;;;;;;;;;;;;;;;3.08;100.00;98105.60;1701480;84;20230;-86
2022/02/03 20:35:44;;;;;;;;;;;;;;;3.10;100.00;98097.34;1697781;84;24739;-86
2022/02/03 20:38:11;;;;;;;;;;;;;;;3.09;100.00;98103.86;1707321;82;21908;-87
2022/02/03 20:40:37;;;;;;;;;;;;;;;3.06;100.00;98091.90;1700653;84;26122;-86
2022/02/03 20:43:03;;;;;;;;;;;;;;;3.08;100.00;98094.42;1700239;84;25056;-87
2022/02/03 20:45:29;;;;;;;;;;;;;;;3.09;100.00;98094.81;1703364;84;20255;-86
2022/02/03 20:47:56;;;;;;;;;;;;;;;3.10;100.00;98096.50;1698273;84;24744;-86
2022/02/03 20:50:22;;;;;;;;;;;;;;;3.07;100.00;98087.57;1702957;83;22008;-87
2022/02/03 20:52:49;;;;;;;;;;;;;;;3.05;100.00;98090.70;1699017;83;26086;-86
2022/02/03 20:55:15;;;;;;;;;;;;;;;3.04;100.00;98089.86;1695139;83;24463;-86
2022/02/03 20:57:42;;;;;;;;;;;;;;;3.01;100.00;98087.84;1705766;82;20505;-89
2022/02/03 21:00:19;;;;;;;;;;;;;;;3.01;100.00;98095.14;1701605;83;25022;-86
2022/02/03 21:02:55;;;;;;;;;;;;;;;3.03;100.00;98092.05;1704721;82;22077;-86
2022/02/03 21:05:16;;;;;;;;;;;;;;;3.05;100.00;98087.66;1702466;82;26869;-86
2022/02/03 21:07:44;;;;;;;;;;;;;;;3.09;100.00;98094.81;1703780;83;24512;-86
2022/02/03 21:10:14;;;;;;;;;;;;;;;3.10;100.00;98098.62;1705168;82;20277;-86
2022/02/03 21:12:40;;;;;;;;;;;;;;;3.11;100.00;98101.58;1704381;82;24775;-86
2022/02/03 21:15:08;;;;;;;;;;;;;;;3.13;100.00;98106.23;1706756;83;21940;-89
2022/02/03 21:17:34;;;;;;;;;;;;;;;3.14;100.00;98099.31;1708902;83;25962;-89
2022/02/03 21:20:08;;;;;;;;;;;;;;;3.11;100.00;98102.86;1703011;83;24480;-89
2022/02/03 21:22:37;;;;;;;;;;;;;;;3.13;100.00;98102.80;1702746;83;20295;-90
2022/02/03 21:25:41;;;;;;;;;;;;;;;3.12;100.00;98105.84;1699928;83;24812;-91
2022/02/03 21:28:11;;;;;;;;;;;;;;;3.12;100.00;98105.00;1695533;82;22384;-87
2022/02/03 21:30:38;;;;;;;;;;;;;;;3.15;100.00;98118.65;1699929;82;26728;-87
2022/02/03 21:33:13;;;;;;;;;;;;;;;3.17;100.00;98119.40;1706471;83;24266;-86
2022/02/03 21:35:38;;;;;;;;;;;;;;;3.20;100.00;98121.02;1703903;83;20252;-87
2022/02/03 21:38:06;;;;;;;;;;;;;;;3.24;100.00;98126.43;1710153;83;24628;-90
2022/02/03 21:40:32;;;;;;;;;;;;;;;3.25;100.00;98119.06;1708864;83;21951;-90
2022/02/03 21:43:01;;;;;;;;;;;;;;;3.29;100.00;98118.01;1710585;83;26022;-90
2022/02/03 21:45:27;;;;;;;;;;;;;;;3.32;100.00;98117.88;1705412;83;24419;-90
2022/02/03 21:47:53;;;;;;;;;;;;;;;3.35;100.00;98117.73;1709471;83;20309;-90
2022/02/03 21:50:21;;;;;;;;;;;;;;;3.34;100.00;98117.34;1705400;83;24806;-90
2022/02/03 21:52:52;;;;;;;;;;;;;;;3.34;100.00;98123.80;1710377;83;21956;-90
2022/02/03 21:55:18;;;;;;;;;;;;;;;3.38;100.00;98125.37;1676561;82;27089;-89
2022/02/03 21:57:48;;;;;;;;;;;;;;;3.42;100.00;98129.48;1698379;83;24546;-89
2022/02/03 22:00:13;;;;;;;;;;;;;;;3.47;100.00;98127.52;1702119;83;20312;-89
2022/02/03 22:02:40;;;;;;;;;;;;;;;3.49;100.00;98123.09;1696768;84;24729;-89
2022/02/03 22:05:11;;;;;;;;;;;;;;;3.51;100.00;98125.62;1699698;83;22098;-86
2022/02/03 22:07:37;;;;;;;;;;;;;;;3.52;100.00;98128.59;1704065;83;25962;-86
2022/02/03 22:10:03;;;;;;;;;;;;;;;3.52;100.00;98129.44;1700972;83;24690;-86
2022/02/03 22:12:29;;;;;;;;;;;;;;;3.51;100.00;98135.97;1705791;83;20301;-85
2022/02/03 22:14:55;;;;;;;;;;;;;;;3.52;100.00;98142.37;1697555;83;20744;-86
2022/02/03 22:17:21;;;;;;;;;;;;;;;3.53;100.00;98144.05;1704102;83;21938;-85
2022/02/03 22:19:49;;;;;;;;;;;;;;;3.52;100.00;98142.37;1699730;83;26208;-86
2022/02/03 22:49:02;;;;;;;;;;;;;;;3.62;100.00;98154.42;1696772;84;24614;-89
2022/02/03 22:51:31;;;;;;;;;;;;;;;3.61;100.00;98154.03;1701552;84;20138;-88
2022/02/03 22:53:57;;;;;;;;;;;;;;;3.52;100.00;98143.66;1704792;84;24796;-88
2022/02/03 22:56:23;;;;;;;;;;;;;;;3.57;100.00;98152.05;1697397;84;21921;-88
2022/02/03 23:01:33;;;;;;;;;;;;;;;3.43;100.00;98136.34;1709830;83;24448;-89
2022/02/03 23:04:00;;;;;;;;;;;;;;;3.33;100.00;98133.76;1705563;83;20320;-89
2022/02/03 23:06:42;;;;;;;;;;;;;;;3.25;100.00;98130.25;1706933;83;24601;-89